sensor_id;sensor_type;location;lat;lon;timestamp;pressure;altitude;pressure_sealevel;temperature;humidity
50302;BME280;36550;50.472;19.744;2023-06-22T00:02:17;98250.27;;;20.73;85.84
50302;BME280;36550;50.472;19.744;2023-06-22T00:05:01;98245.02;;;20.74;85.94
50302;BME280;36550;50.472;19.744;2023-06-22T00:07:45;98239.34;;;20.73;86.01
50302;BME280;36550;50.472;19.744;2023-06-22T00:10:28;98246.06;;;20.69;85.87
50302;BME280;36550;50.472;19.744;2023-06-22T00:13:13;98248.61;;;20.64;85.81
50302;BME280;36550;50.472;19.744;2023-06-22T00:15:57;98248.95;;;20.60;85.65
50302;BME280;36550;50.472;19.744;2023-06-22T00:18:41;98244.16;;;20.56;85.79
50302;BME280;36550;50.472;19.744;2023-06-22T00:21:30;98242.45;;;20.54;85.90
50302;BME280;36550;50.472;19.744;2023-06-22T00:24:14;98244.70;;;20.51;85.82
50302;BME280;36550;50.472;19.744;2023-06-22T00:26:58;98246.52;;;20.48;85.70
50302;BME280;36550;50.472;19.744;2023-06-22T00:29:42;98243.16;;;20.45;85.79
50302;BME280;36550;50.472;19.744;2023-06-22T00:32:26;98239.20;;;20.43;85.78
50302;BME280;36550;50.472;19.744;2023-06-22T00:35:11;98236.05;;;20.41;86.00
50302;BME280;36550;50.472;19.744;2023-06-22T00:37:56;98235.11;;;20.39;86.09
50302;BME280;36550;50.472;19.744;2023-06-22T00:40:44;98234.27;;;20.38;86.08
50302;BME280;36550;50.472;19.744;2023-06-22T00:43:28;98224.91;;;20.36;86.12
50302;BME280;36550;50.472;19.744;2023-06-22T00:46:12;98224.38;;;20.36;86.32
50302;BME280;36550;50.472;19.744;2023-06-22T00:48:56;98230.52;;;20.37;86.43
50302;BME280;36550;50.472;19.744;2023-06-22T00:51:40;98232.06;;;20.39;86.54
50302;BME280;36550;50.472;19.744;2023-06-22T00:54:29;98228.08;;;20.38;86.56
50302;BME280;36550;50.472;19.744;2023-06-22T00:57:13;98222.67;;;20.36;86.49
50302;BME280;36550;50.472;19.744;2023-06-22T00:59:59;98228.11;;;20.34;86.59
50302;BME280;36550;50.472;19.744;2023-06-22T01:02:44;98222.48;;;20.32;86.69
50302;BME280;36550;50.472;19.744;2023-06-22T01:05:31;98215.19;;;20.31;86.61
50302;BME280;36550;50.472;19.744;2023-06-22T01:11:12;98220.14;;;20.29;86.78
50302;BME280;36550;50.472;19.744;2023-06-22T01:14:06;98227.48;;;20.28;86.77
50302;BME280;36550;50.472;19.744;2023-06-22T01:16:54;98227.14;;;20.25;86.94
50302;BME280;36550;50.472;19.744;2023-06-22T01:19:48;98226.61;;;20.25;87.06
50302;BME280;36550;50.472;19.744;2023-06-22T01:22:53;98225.83;;;20.23;87.13
50302;BME280;36550;50.472;19.744;2023-06-22T01:25:46;98227.98;;;20.19;87.07
50302;BME280;36550;50.472;19.744;2023-06-22T01:28:48;98228.11;;;20.14;86.99
50302;BME280;36550;50.472;19.744;2023-06-22T01:31:32;98226.11;;;20.12;87.07
50302;BME280;36550;50.472;19.744;2023-06-22T01:34:19;98229.50;;;20.11;87.11
50302;BME280;36550;50.472;19.744;2023-06-22T01:37:04;98234.09;;;20.07;87.21
50302;BME280;36550;50.472;19.744;2023-06-22T01:39:48;98237.77;;;20.06;87.38
50302;BME280;36550;50.472;19.744;2023-06-22T01:42:33;98240.21;;;20.04;87.35
50302;BME280;36550;50.472;19.744;2023-06-22T01:45:18;98241.80;;;20.01;87.17
50302;BME280;36550;50.472;19.744;2023-06-22T01:48:03;98236.86;;;20.00;87.47
50302;BME280;36550;50.472;19.744;2023-06-22T01:50:47;98237.00;;;20.02;87.53
50302;BME280;36550;50.472;19.744;2023-06-22T01:53:31;98244.89;;;20.00;87.41
50302;BME280;36550;50.472;19.744;2023-06-22T01:56:17;98253.66;;;19.99;87.43
50302;BME280;36550;50.472;19.744;2023-06-22T02:01:55;98253.41;;;19.97;87.47
50302;BME280;36550;50.472;19.744;2023-06-22T02:04:46;98257.84;;;19.96;87.45
50302;BME280;36550;50.472;19.744;2023-06-22T02:07:40;98255.50;;;19.97;87.45
50302;BME280;36550;50.472;19.744;2023-06-22T02:10:26;98253.45;;;19.95;87.39
50302;BME280;36550;50.472;19.744;2023-06-22T02:13:12;98255.27;;;19.94;87.32
50302;BME280;36550;50.472;19.744;2023-06-22T02:15:57;98261.41;;;19.94;87.36
50302;BME280;36550;50.472;19.744;2023-06-22T02:18:51;98260.73;;;19.93;87.51
50302;BME280;36550;50.472;19.744;2023-06-22T02:21:35;98256.66;;;19.91;87.52
50302;BME280;36550;50.472;19.744;2023-06-22T02:24:19;98257.30;;;19.90;87.46
50302;BME280;36550;50.472;19.744;2023-06-22T02:27:03;98256.77;;;19.90;87.49
50302;BME280;36550;50.472;19.744;2023-06-22T02:29:47;98265.46;;;19.90;87.47
50302;BME280;36550;50.472;19.744;2023-06-22T02:32:30;98267.81;;;19.90;87.44
50302;BME280;36550;50.472;19.744;2023-06-22T02:35:18;98261.79;;;19.86;87.36
50302;BME280;36550;50.472;19.744;2023-06-22T02:38:03;98260.13;;;19.83;87.17
50302;BME280;36550;50.472;19.744;2023-06-22T02:40:47;98261.55;;;19.79;87.27
50302;BME280;36550;50.472;19.744;2023-06-22T02:43:31;98264.17;;;19.79;87.37
50302;BME280;36550;50.472;19.744;2023-06-22T02:46:15;98262.27;;;19.78;87.42
50302;BME280;36550;50.472;19.744;2023-06-22T02:48:59;98263.30;;;19.77;87.42
50302;BME280;36550;50.472;19.744;2023-06-22T02:51:46;98267.84;;;19.76;87.51
50302;BME280;36550;50.472;19.744;2023-06-22T02:54:30;98274.23;;;19.76;87.44
50302;BME280;36550;50.472;19.744;2023-06-22T02:57:14;98277.02;;;19.76;87.40
50302;BME280;36550;50.472;19.744;2023-06-22T02:59:59;98276.16;;;19.75;87.40
50302;BME280;36550;50.472;19.744;2023-06-22T03:02:44;98280.60;;;19.77;87.29
50302;BME280;36550;50.472;19.744;2023-06-22T03:05:28;98288.63;;;19.79;87.37
50302;BME280;36550;50.472;19.744;2023-06-22T03:08:12;98290.22;;;19.79;87.31
50302;BME280;36550;50.472;19.744;2023-06-22T03:10:56;98287.70;;;19.80;87.40
50302;BME280;36550;50.472;19.744;2023-06-22T03:13:40;98291.25;;;19.81;87.51
50302;BME280;36550;50.472;19.744;2023-06-22T03:16:24;98294.50;;;19.86;87.63
50302;BME280;36550;50.472;19.744;2023-06-22T03:19:08;98298.92;;;19.89;87.57
50302;BME280;36550;50.472;19.744;2023-06-22T03:21:51;98301.71;;;19.92;87.51
50302;BME280;36550;50.472;19.744;2023-06-22T03:24:35;98302.75;;;19.93;87.32
50302;BME280;36550;50.472;19.744;2023-06-22T03:27:20;98305.75;;;19.93;87.35
50302;BME280;36550;50.472;19.744;2023-06-22T03:30:06;98315.11;;;19.93;87.42
50302;BME280;36550;50.472;19.744;2023-06-22T03:32:50;98320.42;;;19.94;87.46
50302;BME280;36550;50.472;19.744;2023-06-22T03:35:34;98331.42;;;19.96;87.35
50302;BME280;36550;50.472;19.744;2023-06-22T03:38:18;98335.29;;;19.98;87.44
50302;BME280;36550;50.472;19.744;2023-06-22T03:41:01;98333.39;;;20.01;87.47
50302;BME280;36550;50.472;19.744;2023-06-22T03:43:45;98333.90;;;20.03;87.32
50302;BME280;36550;50.472;19.744;2023-06-22T03:46:29;98337.06;;;20.05;87.34
50302;BME280;36550;50.472;19.744;2023-06-22T03:49:13;98344.61;;;20.07;87.37
50302;BME280;36550;50.472;19.744;2023-06-22T03:51:57;98341.92;;;20.06;87.44
50302;BME280;36550;50.472;19.744;2023-06-22T03:54:41;98342.05;;;20.10;87.36
50302;BME280;36550;50.472;19.744;2023-06-22T03:57:25;98347.73;;;20.18;87.53
50302;BME280;36550;50.472;19.744;2023-06-22T04:00:09;98352.07;;;20.29;87.56
50302;BME280;36550;50.472;19.744;2023-06-22T04:02:54;98355.58;;;20.40;87.59
50302;BME280;36550;50.472;19.744;2023-06-22T04:05:39;98361.35;;;20.50;87.56
50302;BME280;36550;50.472;19.744;2023-06-22T04:08:23;98367.20;;;20.59;87.52
50302;BME280;36550;50.472;19.744;2023-06-22T04:11:07;98375.92;;;20.64;87.48
50302;BME280;36550;50.472;19.744;2023-06-22T04:13:51;98375.16;;;20.66;87.31
50302;BME280;36550;50.472;19.744;2023-06-22T04:16:35;98378.75;;;20.68;87.32
50302;BME280;36550;50.472;19.744;2023-06-22T04:19:19;98383.02;;;20.73;87.27
50302;BME280;36550;50.472;19.744;2023-06-22T04:22:03;98382.45;;;20.80;87.30
50302;BME280;36550;50.472;19.744;2023-06-22T04:24:47;98382.30;;;20.89;87.48
50302;BME280;36550;50.472;19.744;2023-06-22T04:27:31;98386.69;;;20.95;87.46
50302;BME280;36550;50.472;19.744;2023-06-22T04:30:15;98385.98;;;21.01;87.45
50302;BME280;36550;50.472;19.744;2023-06-22T04:33:00;98386.13;;;21.09;87.27
50302;BME280;36550;50.472;19.744;2023-06-22T04:35:47;98385.94;;;21.19;87.33
50302;BME280;36550;50.472;19.744;2023-06-22T04:38:31;98384.45;;;21.30;87.24
50302;BME280;36550;50.472;19.744;2023-06-22T04:41:18;98384.86;;;21.44;87.40
50302;BME280;36550;50.472;19.744;2023-06-22T04:44:11;98380.04;;;21.54;87.15
50302;BME280;36550;50.472;19.744;2023-06-22T04:46:59;98378.45;;;21.58;86.92
50302;BME280;36550;50.472;19.744;2023-06-22T04:49:51;98378.49;;;21.62;86.70
50302;BME280;36550;50.472;19.744;2023-06-22T04:52:35;98383.42;;;21.61;86.55
50302;BME280;36550;50.472;19.744;2023-06-22T04:55:20;98385.36;;;21.66;86.67
50302;BME280;36550;50.472;19.744;2023-06-22T04:58:04;98386.98;;;21.67;86.55
50302;BME280;36550;50.472;19.744;2023-06-22T05:00:48;98387.84;;;21.69;86.57
50302;BME280;36550;50.472;19.744;2023-06-22T05:03:35;98386.31;;;21.71;86.45
50302;BME280;36550;50.472;19.744;2023-06-22T05:06:21;98388.88;;;21.74;86.58
50302;BME280;36550;50.472;19.744;2023-06-22T05:09:08;98391.91;;;21.77;86.43
50302;BME280;36550;50.472;19.744;2023-06-22T05:11:52;98388.16;;;21.78;86.28
50302;BME280;36550;50.472;19.744;2023-06-22T05:14:36;98381.11;;;21.83;86.28
50302;BME280;36550;50.472;19.744;2023-06-22T05:17:20;98384.38;;;21.93;86.35
50302;BME280;36550;50.472;19.744;2023-06-22T05:20:04;98386.75;;;22.04;86.54
50302;BME280;36550;50.472;19.744;2023-06-22T05:22:49;98390.50;;;22.12;86.48
50302;BME280;36550;50.472;19.744;2023-06-22T05:25:33;98387.02;;;22.20;86.46
50302;BME280;36550;50.472;19.744;2023-06-22T05:28:17;98386.70;;;22.35;86.51
50302;BME280;36550;50.472;19.744;2023-06-22T05:31:06;98383.91;;;22.54;86.31
50302;BME280;36550;50.472;19.744;2023-06-22T05:33:51;98382.85;;;22.67;86.13
50302;BME280;36550;50.472;19.744;2023-06-22T05:36:36;98384.63;;;22.84;85.94
50302;BME280;36550;50.472;19.744;2023-06-22T05:39:20;98390.09;;;23.06;85.60
50302;BME280;36550;50.472;19.744;2023-06-22T05:42:07;98396.89;;;23.17;85.11
50302;BME280;36550;50.472;19.744;2023-06-22T05:44:52;98400.98;;;23.33;85.00
50302;BME280;36550;50.472;19.744;2023-06-22T05:47:37;98401.49;;;23.46;84.07
50302;BME280;36550;50.472;19.744;2023-06-22T05:50:21;98404.55;;;23.64;84.28
50302;BME280;36550;50.472;19.744;2023-06-22T05:53:04;98401.98;;;23.83;83.91
50302;BME280;36550;50.472;19.744;2023-06-22T05:55:50;98406.02;;;24.08;83.48
50302;BME280;36550;50.472;19.744;2023-06-22T05:58:35;98408.83;;;24.26;83.14
50302;BME280;36550;50.472;19.744;2023-06-22T06:01:19;98419.04;;;24.51;82.59
50302;BME280;36550;50.472;19.744;2023-06-22T06:04:03;98414.33;;;24.69;81.92
50302;BME280;36550;50.472;19.744;2023-06-22T06:06:48;98416.52;;;24.70;80.30
50302;BME280;36550;50.472;19.744;2023-06-22T06:09:32;98412.70;;;24.65;79.18
50302;BME280;36550;50.472;19.744;2023-06-22T06:12:16;98424.92;;;24.59;78.67
50302;BME280;36550;50.472;19.744;2023-06-22T06:14:59;98426.11;;;24.54;78.88
50302;BME280;36550;50.472;19.744;2023-06-22T06:17:51;98429.89;;;24.58;79.06
50302;BME280;36550;50.472;19.744;2023-06-22T06:20:34;98428.39;;;24.71;79.28
50302;BME280;36550;50.472;19.744;2023-06-22T06:23:19;98424.42;;;24.88;79.22
50302;BME280;36550;50.472;19.744;2023-06-22T06:26:02;98428.29;;;24.80;75.92
50302;BME280;36550;50.472;19.744;2023-06-22T06:28:51;98436.61;;;24.42;74.87
50302;BME280;36550;50.472;19.744;2023-06-22T06:31:34;98433.17;;;24.19;75.88
50302;BME280;36550;50.472;19.744;2023-06-22T06:34:19;98438.41;;;24.18;76.70
50302;BME280;36550;50.472;19.744;2023-06-22T06:37:03;98448.38;;;24.15;77.07
50302;BME280;36550;50.472;19.744;2023-06-22T06:39:47;98448.27;;;24.13;76.52
50302;BME280;36550;50.472;19.744;2023-06-22T06:42:31;98448.02;;;24.09;76.31
50302;BME280;36550;50.472;19.744;2023-06-22T06:45:17;98450.95;;;24.04;76.43
50302;BME280;36550;50.472;19.744;2023-06-22T06:48:01;98446.91;;;24.04;76.83
50302;BME280;36550;50.472;19.744;2023-06-22T06:50:45;98445.75;;;24.11;76.79
50302;BME280;36550;50.472;19.744;2023-06-22T06:53:29;98441.85;;;24.14;76.33
50302;BME280;36550;50.472;19.744;2023-06-22T06:56:13;98450.21;;;24.09;75.47
50302;BME280;36550;50.472;19.744;2023-06-22T06:58:57;98450.30;;;23.98;75.65
50302;BME280;36550;50.472;19.744;2023-06-22T07:01:42;98450.59;;;23.96;76.21
50302;BME280;36550;50.472;19.744;2023-06-22T07:04:28;98447.23;;;24.03;76.62
50302;BME280;36550;50.472;19.744;2023-06-22T07:07:11;98448.65;;;24.09;76.45
50302;BME280;36550;50.472;19.744;2023-06-22T07:09:55;98448.45;;;24.14;76.36
50302;BME280;36550;50.472;19.744;2023-06-22T07:12:39;98451.09;;;24.17;75.88
50302;BME280;36550;50.472;19.744;2023-06-22T07:15:23;98448.20;;;24.19;75.29
50302;BME280;36550;50.472;19.744;2023-06-22T07:18:07;98444.95;;;24.22;75.28
50302;BME280;36550;50.472;19.744;2023-06-22T07:20:52;98441.92;;;24.23;75.06
50302;BME280;36550;50.472;19.744;2023-06-22T07:23:36;98439.41;;;24.26;75.15
50302;BME280;36550;50.472;19.744;2023-06-22T07:26:20;98439.77;;;24.27;74.62
50302;BME280;36550;50.472;19.744;2023-06-22T07:29:04;98434.55;;;24.29;74.46
50302;BME280;36550;50.472;19.744;2023-06-22T07:31:50;98437.63;;;24.30;74.54
50302;BME280;36550;50.472;19.744;2023-06-22T07:34:35;98438.64;;;24.30;74.08
50302;BME280;36550;50.472;19.744;2023-06-22T07:37:19;98432.73;;;24.27;73.61
50302;BME280;36550;50.472;19.744;2023-06-22T07:40:03;98430.98;;;24.26;73.37
50302;BME280;36550;50.472;19.744;2023-06-22T07:42:50;98432.67;;;24.27;72.89
50302;BME280;36550;50.472;19.744;2023-06-22T07:45:37;98430.23;;;24.25;71.90
50302;BME280;36550;50.472;19.744;2023-06-22T07:48:21;98434.52;;;24.21;71.91
50302;BME280;36550;50.472;19.744;2023-06-22T07:51:06;98437.60;;;24.22;72.26
50302;BME280;36550;50.472;19.744;2023-06-22T07:53:49;98441.46;;;24.24;72.41
50302;BME280;36550;50.472;19.744;2023-06-22T07:56:35;98440.99;;;24.26;72.12
50302;BME280;36550;50.472;19.744;2023-06-22T07:59:19;98440.77;;;24.22;68.86
50302;BME280;36550;50.472;19.744;2023-06-22T08:02:04;98441.60;;;24.14;67.79
50302;BME280;36550;50.472;19.744;2023-06-22T08:04:49;98451.09;;;24.08;66.53
50302;BME280;36550;50.472;19.744;2023-06-22T08:07:34;98455.42;;;24.05;67.01
50302;BME280;36550;50.472;19.744;2023-06-22T08:10:19;98463.01;;;24.08;68.41
50302;BME280;36550;50.472;19.744;2023-06-22T08:13:03;98465.19;;;24.12;68.78
50302;BME280;36550;50.472;19.744;2023-06-22T08:15:46;98460.59;;;24.15;68.56
50302;BME280;36550;50.472;19.744;2023-06-22T08:18:30;98463.82;;;24.20;68.16
50302;BME280;36550;50.472;19.744;2023-06-22T08:21:14;98468.91;;;24.23;67.78
50302;BME280;36550;50.472;19.744;2023-06-22T08:23:58;98468.20;;;24.23;66.87
50302;BME280;36550;50.472;19.744;2023-06-22T08:26:42;98463.73;;;24.25;67.65
50302;BME280;36550;50.472;19.744;2023-06-22T08:29:26;98471.88;;;24.28;67.28
50302;BME280;36550;50.472;19.744;2023-06-22T08:32:09;98478.48;;;24.29;67.93
50302;BME280;36550;50.472;19.744;2023-06-22T08:34:55;98477.50;;;24.31;67.05
50302;BME280;36550;50.472;19.744;2023-06-22T08:37:39;98475.20;;;24.31;66.45
50302;BME280;36550;50.472;19.744;2023-06-22T08:40:24;98480.91;;;24.32;66.68
50302;BME280;36550;50.472;19.744;2023-06-22T08:43:08;98482.65;;;24.33;66.85
50302;BME280;36550;50.472;19.744;2023-06-22T08:45:52;98484.27;;;24.35;67.08
50302;BME280;36550;50.472;19.744;2023-06-22T08:48:36;98484.51;;;24.37;66.87
50302;BME280;36550;50.472;19.744;2023-06-22T08:51:20;98485.05;;;24.39;66.38
50302;BME280;36550;50.472;19.744;2023-06-22T08:54:04;98479.73;;;24.43;66.65
50302;BME280;36550;50.472;19.744;2023-06-22T08:56:48;98478.91;;;24.49;66.97
50302;BME280;36550;50.472;19.744;2023-06-22T08:59:32;98473.98;;;24.53;66.71
50302;BME280;36550;50.472;19.744;2023-06-22T09:02:16;98471.10;;;24.54;65.99
50302;BME280;36550;50.472;19.744;2023-06-22T09:05:03;98467.20;;;24.54;65.66
50302;BME280;36550;50.472;19.744;2023-06-22T09:07:47;98469.09;;;24.55;65.71
50302;BME280;36550;50.472;19.744;2023-06-22T09:10:31;98476.33;;;24.59;65.89
50302;BME280;36550;50.472;19.744;2023-06-22T09:13:15;98479.48;;;24.61;65.81
50302;BME280;36550;50.472;19.744;2023-06-22T09:15:59;98482.99;;;24.64;65.60
50302;BME280;36550;50.472;19.744;2023-06-22T09:18:47;98480.06;;;24.67;65.60
50302;BME280;36550;50.472;19.744;2023-06-22T09:21:31;98481.60;;;24.71;65.05
50302;BME280;36550;50.472;19.744;2023-06-22T09:24:15;98482.39;;;24.71;65.02
50302;BME280;36550;50.472;19.744;2023-06-22T09:26:59;98489.36;;;24.73;64.72
50302;BME280;36550;50.472;19.744;2023-06-22T09:29:43;98487.63;;;24.76;64.54
50302;BME280;36550;50.472;19.744;2023-06-22T09:32:27;98485.23;;;24.78;64.39
50302;BME280;36550;50.472;19.744;2023-06-22T09:35:10;98478.57;;;24.83;64.80
50302;BME280;36550;50.472;19.744;2023-06-22T09:37:56;98481.28;;;24.85;64.11
50302;BME280;36550;50.472;19.744;2023-06-22T09:40:40;98476.95;;;24.88;64.60
50302;BME280;36550;50.472;19.744;2023-06-22T09:43:24;98481.02;;;24.91;64.45
50302;BME280;36550;50.472;19.744;2023-06-22T09:46:07;98483.42;;;24.95;64.24
50302;BME280;36550;50.472;19.744;2023-06-22T09:48:53;98483.95;;;24.97;63.70
50302;BME280;36550;50.472;19.744;2023-06-22T09:51:37;98482.60;;;24.99;63.95
50302;BME280;36550;50.472;19.744;2023-06-22T09:54:21;98481.64;;;25.02;63.69
50302;BME280;36550;50.472;19.744;2023-06-22T09:57:04;98479.63;;;25.07;63.73
50302;BME280;36550;50.472;19.744;2023-06-22T09:59:48;98476.42;;;25.11;63.86
50302;BME280;36550;50.472;19.744;2023-06-22T10:02:32;98477.23;;;25.12;63.17
50302;BME280;36550;50.472;19.744;2023-06-22T10:05:16;98471.52;;;25.11;63.29
50302;BME280;36550;50.472;19.744;2023-06-22T10:08:01;98470.92;;;25.13;63.65
50302;BME280;36550;50.472;19.744;2023-06-22T10:10:45;98478.15;;;25.19;63.72
50302;BME280;36550;50.472;19.744;2023-06-22T10:13:29;98471.56;;;25.22;63.90
50302;BME280;36550;50.472;19.744;2023-06-22T10:16:13;98471.08;;;25.24;63.66
50302;BME280;36550;50.472;19.744;2023-06-22T10:18:57;98467.48;;;25.24;62.94
50302;BME280;36550;50.472;19.744;2023-06-22T10:21:41;98461.61;;;25.20;62.33
50302;BME280;36550;50.472;19.744;2023-06-22T10:24:24;98454.63;;;25.16;62.38
50302;BME280;36550;50.472;19.744;2023-06-22T10:27:08;98453.71;;;25.16;62.93
50302;BME280;36550;50.472;19.744;2023-06-22T10:29:52;98454.60;;;25.16;62.83
50302;BME280;36550;50.472;19.744;2023-06-22T10:32:38;98453.02;;;25.13;62.81
50302;BME280;36550;50.472;19.744;2023-06-22T10:35:22;98459.72;;;25.14;63.10
50302;BME280;36550;50.472;19.744;2023-06-22T10:38:06;98459.23;;;25.14;63.55
50302;BME280;36550;50.472;19.744;2023-06-22T10:40:50;98458.84;;;25.13;62.70
50302;BME280;36550;50.472;19.744;2023-06-22T10:43:34;98458.31;;;25.11;63.23
50302;BME280;36550;50.472;19.744;2023-06-22T10:46:18;98456.92;;;25.14;63.64
50302;BME280;36550;50.472;19.744;2023-06-22T10:49:02;98455.23;;;25.16;63.37
50302;BME280;36550;50.472;19.744;2023-06-22T10:51:46;98447.55;;;25.16;62.79
50302;BME280;36550;50.472;19.744;2023-06-22T10:54:29;98441.02;;;25.16;62.83
50302;BME280;36550;50.472;19.744;2023-06-22T10:57:13;98441.39;;;25.18;62.97
50302;BME280;36550;50.472;19.744;2023-06-22T10:59:57;98438.23;;;25.21;63.33
50302;BME280;36550;50.472;19.744;2023-06-22T11:02:41;98430.88;;;25.22;63.45
50302;BME280;36550;50.472;19.744;2023-06-22T11:05:25;98425.27;;;25.21;63.37
50302;BME280;36550;50.472;19.744;2023-06-22T11:08:09;98416.55;;;25.22;63.40
50302;BME280;36550;50.472;19.744;2023-06-22T11:10:53;98420.92;;;25.22;63.59
50302;BME280;36550;50.472;19.744;2023-06-22T11:13:37;98421.03;;;25.23;63.71
50302;BME280;36550;50.472;19.744;2023-06-22T11:16:21;98419.95;;;25.27;63.64
50302;BME280;36550;50.472;19.744;2023-06-22T11:19:05;98425.00;;;25.31;63.71
50302;BME280;36550;50.472;19.744;2023-06-22T11:21:50;98427.67;;;25.36;63.09
50302;BME280;36550;50.472;19.744;2023-06-22T11:24:34;98414.68;;;25.38;63.14
50302;BME280;36550;50.472;19.744;2023-06-22T11:27:18;98410.85;;;25.40;63.14
50302;BME280;36550;50.472;19.744;2023-06-22T11:30:02;98418.95;;;25.45;62.80
50302;BME280;36550;50.472;19.744;2023-06-22T11:32:46;98417.55;;;25.48;62.77
50302;BME280;36550;50.472;19.744;2023-06-22T11:35:30;98417.96;;;25.48;62.16
50302;BME280;36550;50.472;19.744;2023-06-22T11:38:13;98416.26;;;25.48;61.97
50302;BME280;36550;50.472;19.744;2023-06-22T11:41:00;98413.73;;;25.48;62.13
50302;BME280;36550;50.472;19.744;2023-06-22T11:43:44;98411.96;;;25.52;62.68
50302;BME280;36550;50.472;19.744;2023-06-22T11:46:28;98412.25;;;25.53;62.01
50302;BME280;36550;50.472;19.744;2023-06-22T11:49:12;98407.72;;;25.55;62.60
50302;BME280;36550;50.472;19.744;2023-06-22T11:51:56;98407.96;;;25.58;62.25
50302;BME280;36550;50.472;19.744;2023-06-22T11:54:41;98405.39;;;25.61;61.94
50302;BME280;36550;50.472;19.744;2023-06-22T11:57:24;98404.52;;;25.64;62.19
50302;BME280;36550;50.472;19.744;2023-06-22T12:00:09;98402.23;;;25.65;62.17
50302;BME280;36550;50.472;19.744;2023-06-22T12:03:00;98395.40;;;25.65;61.96
50302;BME280;36550;50.472;19.744;2023-06-22T12:05:44;98397.02;;;25.67;62.41
50302;BME280;36550;50.472;19.744;2023-06-22T12:08:28;98388.07;;;25.68;62.34
50302;BME280;36550;50.472;19.744;2023-06-22T12:11:13;98392.77;;;25.70;62.46
50302;BME280;36550;50.472;19.744;2023-06-22T12:13:57;98392.92;;;25.72;62.07
50302;BME280;36550;50.472;19.744;2023-06-22T12:16:45;98388.74;;;25.73;60.97
50302;BME280;36550;50.472;19.744;2023-06-22T12:19:29;98392.45;;;25.78;60.03
50302;BME280;36550;50.472;19.744;2023-06-22T12:22:13;98390.41;;;25.81;60.36
50302;BME280;36550;50.472;19.744;2023-06-22T12:24:57;98388.22;;;25.82;59.20
50302;BME280;36550;50.472;19.744;2023-06-22T12:27:41;98385.94;;;25.82;59.53
50302;BME280;36550;50.472;19.744;2023-06-22T12:30:24;98380.52;;;25.85;59.19
50302;BME280;36550;50.472;19.744;2023-06-22T12:33:08;98383.13;;;25.87;59.17
50302;BME280;36550;50.472;19.744;2023-06-22T12:35:52;98380.78;;;25.90;58.18
50302;BME280;36550;50.472;19.744;2023-06-22T12:38:36;98379.28;;;25.93;58.14
50302;BME280;36550;50.472;19.744;2023-06-22T12:41:20;98370.33;;;25.95;58.53
50302;BME280;36550;50.472;19.744;2023-06-22T12:44:04;98368.09;;;25.97;58.92
50302;BME280;36550;50.472;19.744;2023-06-22T12:46:48;98363.16;;;25.99;59.03
50302;BME280;36550;50.472;19.744;2023-06-22T12:49:32;98358.35;;;25.99;58.95
50302;BME280;36550;50.472;19.744;2023-06-22T12:52:16;98354.28;;;26.00;59.19
50302;BME280;36550;50.472;19.744;2023-06-22T12:55:00;98361.13;;;26.02;58.69
50302;BME280;36550;50.472;19.744;2023-06-22T12:57:44;98356.97;;;26.04;58.51
50302;BME280;36550;50.472;19.744;2023-06-22T13:00:27;98354.40;;;26.09;58.52
50302;BME280;36550;50.472;19.744;2023-06-22T13:03:11;98350.79;;;26.14;58.07
50302;BME280;36550;50.472;19.744;2023-06-22T13:05:55;98344.27;;;26.17;58.05
50302;BME280;36550;50.472;19.744;2023-06-22T13:08:39;98340.11;;;26.18;57.92
50302;BME280;36550;50.472;19.744;2023-06-22T13:11:24;98340.46;;;26.19;57.10
50302;BME280;36550;50.472;19.744;2023-06-22T13:14:08;98333.61;;;26.17;57.24
50302;BME280;36550;50.472;19.744;2023-06-22T13:16:52;98334.54;;;26.19;57.47
50302;BME280;36550;50.472;19.744;2023-06-22T13:19:36;98333.04;;;26.24;57.91
50302;BME280;36550;50.472;19.744;2023-06-22T13:22:34;98333.37;;;26.27;58.22
50302;BME280;36550;50.472;19.744;2023-06-22T13:25:26;98324.76;;;26.27;58.22
50302;BME280;36550;50.472;19.744;2023-06-22T13:28:10;98328.05;;;26.27;58.01
50302;BME280;36550;50.472;19.744;2023-06-22T13:30:57;98325.54;;;26.28;58.25
50302;BME280;36550;50.472;19.744;2023-06-22T13:33:41;98326.30;;;26.27;58.68
50302;BME280;36550;50.472;19.744;2023-06-22T13:36:25;98325.73;;;26.27;58.46
50302;BME280;36550;50.472;19.744;2023-06-22T13:39:09;98325.58;;;26.27;58.20
50302;BME280;36550;50.472;19.744;2023-06-22T13:41:52;98322.96;;;26.29;58.25
50302;BME280;36550;50.472;19.744;2023-06-22T13:44:36;98319.73;;;26.30;58.60
50302;BME280;36550;50.472;19.744;2023-06-22T13:47:20;98316.25;;;26.33;58.00
50302;BME280;36550;50.472;19.744;2023-06-22T13:50:04;98315.94;;;26.37;57.78
50302;BME280;36550;50.472;19.744;2023-06-22T13:52:49;98309.06;;;26.43;58.21
50302;BME280;36550;50.472;19.744;2023-06-22T13:55:32;98309.23;;;26.45;58.14
50302;BME280;36550;50.472;19.744;2023-06-22T13:58:16;98306.61;;;26.45;58.34
50302;BME280;36550;50.472;19.744;2023-06-22T14:01:00;98304.95;;;26.43;58.48
50302;BME280;36550;50.472;19.744;2023-06-22T14:03:44;98305.73;;;26.41;58.66
50302;BME280;36550;50.472;19.744;2023-06-22T14:06:30;98307.17;;;26.39;57.84
50302;BME280;36550;50.472;19.744;2023-06-22T14:09:15;98310.10;;;26.39;57.59
50302;BME280;36550;50.472;19.744;2023-06-22T14:12:03;98301.86;;;26.39;57.64
50302;BME280;36550;50.472;19.744;2023-06-22T14:14:49;98305.62;;;26.39;58.00
50302;BME280;36550;50.472;19.744;2023-06-22T14:17:33;98305.27;;;26.37;58.19
50302;BME280;36550;50.472;19.744;2023-06-22T14:20:18;98303.77;;;26.37;58.16
50302;BME280;36550;50.472;19.744;2023-06-22T14:23:02;98306.50;;;26.37;58.44
50302;BME280;36550;50.472;19.744;2023-06-22T14:25:45;98304.85;;;26.36;58.83
50302;BME280;36550;50.472;19.744;2023-06-22T14:28:29;98301.38;;;26.36;58.84